sensor_id;sensor_type;location;lat;lon;timestamp;P1;durP1;ratioP1;P2;durP2;ratioP2
19111;SDS011;9688;51.906;8.376;2023-09-19T00:00:22;5.70;;;2.63;;
19111;SDS011;9688;51.906;8.376;2023-09-19T00:03:13;3.40;;;2.57;;
19111;SDS011;9688;51.906;8.376;2023-09-19T00:05:59;2.70;;;2.30;;
19111;SDS011;9688;51.906;8.376;2023-09-19T00:08:45;9.63;;;2.50;;
19111;SDS011;9688;51.906;8.376;2023-09-19T00:11:31;7.07;;;2.87;;
19111;SDS011;9688;51.906;8.376;2023-09-19T00:14:18;4.70;;;2.50;;
19111;SDS011;9688;51.906;8.376;2023-09-19T00:17:04;3.20;;;2.50;;
19111;SDS011;9688;51.906;8.376;2023-09-19T00:19:53;7.80;;;2.50;;
19111;SDS011;9688;51.906;8.376;2023-09-19T00:22:40;6.63;;;2.60;;
19111;SDS011;9688;51.906;8.376;2023-09-19T00:25:26;6.13;;;2.40;;
19111;SDS011;9688;51.906;8.376;2023-09-19T00:28:13;7.80;;;2.40;;
19111;SDS011;9688;51.906;8.376;2023-09-19T00:30:59;5.07;;;2.20;;
19111;SDS011;9688;51.906;8.376;2023-09-19T00:33:45;7.43;;;3.27;;
19111;SDS011;9688;51.906;8.376;2023-09-19T00:36:34;5.23;;;3.03;;
19111;SDS011;9688;51.906;8.376;2023-09-19T00:39:22;8.93;;;3.23;;
19111;SDS011;9688;51.906;8.376;2023-09-19T00:42:09;5.47;;;3.30;;
19111;SDS011;9688;51.906;8.376;2023-09-19T00:45:05;5.17;;;3.40;;
19111;SDS011;9688;51.906;8.376;2023-09-19T00:47:53;7.93;;;3.80;;
19111;SDS011;9688;51.906;8.376;2023-09-19T00:50:38;7.20;;;3.60;;
19111;SDS011;9688;51.906;8.376;2023-09-19T00:53:29;6.97;;;3.83;;
19111;SDS011;9688;51.906;8.376;2023-09-19T00:56:18;7.77;;;3.40;;
19111;SDS011;9688;51.906;8.376;2023-09-19T00:59:05;6.60;;;3.60;;
19111;SDS011;9688;51.906;8.376;2023-09-19T01:01:50;8.30;;;4.10;;
19111;SDS011;9688;51.906;8.376;2023-09-19T01:04:37;6.87;;;3.70;;
19111;SDS011;9688;51.906;8.376;2023-09-19T01:07:24;6.53;;;3.80;;
19111;SDS011;9688;51.906;8.376;2023-09-19T01:10:11;7.43;;;4.20;;
19111;SDS011;9688;51.906;8.376;2023-09-19T01:13:01;7.07;;;3.50;;
19111;SDS011;9688;51.906;8.376;2023-09-19T01:15:57;7.57;;;3.70;;
19111;SDS011;9688;51.906;8.376;2023-09-19T01:18:52;7.13;;;3.57;;
19111;SDS011;9688;51.906;8.376;2023-09-19T01:21:48;7.33;;;3.73;;
19111;SDS011;9688;51.906;8.376;2023-09-19T01:24:54;6.27;;;3.97;;
19111;SDS011;9688;51.906;8.376;2023-09-19T01:28:11;7.97;;;4.63;;
19111;SDS011;9688;51.906;8.376;2023-09-19T01:31:09;9.00;;;4.57;;
19111;SDS011;9688;51.906;8.376;2023-09-19T01:33:57;8.20;;;4.20;;
19111;SDS011;9688;51.906;8.376;2023-09-19T01:36:44;9.80;;;4.40;;
19111;SDS011;9688;51.906;8.376;2023-09-19T01:39:30;11.10;;;4.53;;
19111;SDS011;9688;51.906;8.376;2023-09-19T01:42:20;6.87;;;4.20;;
19111;SDS011;9688;51.906;8.376;2023-09-19T01:45:11;10.67;;;4.40;;
19111;SDS011;9688;51.906;8.376;2023-09-19T01:48:04;12.63;;;4.50;;
19111;SDS011;9688;51.906;8.376;2023-09-19T01:51:00;9.23;;;4.30;;
19111;SDS011;9688;51.906;8.376;2023-09-19T01:53:50;16.37;;;4.27;;
19111;SDS011;9688;51.906;8.376;2023-09-19T01:56:42;9.73;;;4.27;;
19111;SDS011;9688;51.906;8.376;2023-09-19T01:59:36;7.90;;;3.60;;
19111;SDS011;9688;51.906;8.376;2023-09-19T02:02:27;9.00;;;3.70;;
19111;SDS011;9688;51.906;8.376;2023-09-19T02:05:23;12.57;;;3.20;;
19111;SDS011;9688;51.906;8.376;2023-09-19T02:08:09;11.67;;;3.53;;
19111;SDS011;9688;51.906;8.376;2023-09-19T02:10:54;11.03;;;3.10;;
19111;SDS011;9688;51.906;8.376;2023-09-19T02:13:40;11.03;;;2.60;;
19111;SDS011;9688;51.906;8.376;2023-09-19T02:16:26;12.00;;;2.90;;
19111;SDS011;9688;51.906;8.376;2023-09-19T02:19:13;10.47;;;2.90;;
19111;SDS011;9688;51.906;8.376;2023-09-19T02:22:00;10.63;;;2.80;;
19111;SDS011;9688;51.906;8.376;2023-09-19T02:24:47;8.93;;;2.73;;
19111;SDS011;9688;51.906;8.376;2023-09-19T02:27:33;10.80;;;3.00;;
19111;SDS011;9688;51.906;8.376;2023-09-19T02:30:19;6.23;;;2.67;;
19111;SDS011;9688;51.906;8.376;2023-09-19T02:33:10;7.30;;;3.00;;
19111;SDS011;9688;51.906;8.376;2023-09-19T02:35:56;12.43;;;2.80;;
19111;SDS011;9688;51.906;8.376;2023-09-19T02:38:44;13.13;;;2.77;;
19111;SDS011;9688;51.906;8.376;2023-09-19T02:41:29;10.53;;;2.73;;
19111;SDS011;9688;51.906;8.376;2023-09-19T02:44:17;8.53;;;2.50;;
19111;SDS011;9688;51.906;8.376;2023-09-19T02:47:04;11.07;;;3.53;;
19111;SDS011;9688;51.906;8.376;2023-09-19T02:49:49;8.97;;;3.33;;
19111;SDS011;9688;51.906;8.376;2023-09-19T02:52:35;6.37;;;2.70;;
19111;SDS011;9688;51.906;8.376;2023-09-19T02:55:23;9.43;;;3.30;;
19111;SDS011;9688;51.906;8.376;2023-09-19T02:58:08;10.60;;;3.10;;
19111;SDS011;9688;51.906;8.376;2023-09-19T03:00:55;8.77;;;2.87;;
19111;SDS011;9688;51.906;8.376;2023-09-19T03:03:41;12.77;;;3.20;;
19111;SDS011;9688;51.906;8.376;2023-09-19T03:06:27;10.13;;;4.00;;
19111;SDS011;9688;51.906;8.376;2023-09-19T03:09:15;13.37;;;3.93;;
19111;SDS011;9688;51.906;8.376;2023-09-19T03:12:02;11.10;;;3.43;;
19111;SDS011;9688;51.906;8.376;2023-09-19T03:14:50;9.23;;;3.50;;
19111;SDS011;9688;51.906;8.376;2023-09-19T03:17:36;10.37;;;3.27;;
19111;SDS011;9688;51.906;8.376;2023-09-19T03:20:22;11.93;;;3.37;;
19111;SDS011;9688;51.906;8.376;2023-09-19T03:23:08;12.53;;;2.70;;
19111;SDS011;9688;51.906;8.376;2023-09-19T03:25:54;11.97;;;4.03;;
19111;SDS011;9688;51.906;8.376;2023-09-19T03:28:42;11.17;;;2.83;;
19111;SDS011;9688;51.906;8.376;2023-09-19T03:31:30;9.50;;;3.07;;
19111;SDS011;9688;51.906;8.376;2023-09-19T03:34:16;10.03;;;2.90;;
19111;SDS011;9688;51.906;8.376;2023-09-19T03:37:03;11.20;;;2.80;;
19111;SDS011;9688;51.906;8.376;2023-09-19T03:39:49;12.80;;;2.97;;
19111;SDS011;9688;51.906;8.376;2023-09-19T03:42:37;9.77;;;2.50;;
19111;SDS011;9688;51.906;8.376;2023-09-19T03:45:25;16.17;;;3.17;;
19111;SDS011;9688;51.906;8.376;2023-09-19T03:48:12;11.37;;;3.20;;
19111;SDS011;9688;51.906;8.376;2023-09-19T03:50:58;7.80;;;2.70;;
19111;SDS011;9688;51.906;8.376;2023-09-19T03:53:43;9.13;;;3.07;;
19111;SDS011;9688;51.906;8.376;2023-09-19T03:56:30;7.40;;;2.70;;
19111;SDS011;9688;51.906;8.376;2023-09-19T03:59:16;8.97;;;3.07;;
19111;SDS011;9688;51.906;8.376;2023-09-19T04:02:03;7.43;;;2.53;;
19111;SDS011;9688;51.906;8.376;2023-09-19T04:04:55;11.77;;;3.10;;
19111;SDS011;9688;51.906;8.376;2023-09-19T04:07:41;10.73;;;2.93;;
19111;SDS011;9688;51.906;8.376;2023-09-19T04:10:27;9.33;;;2.90;;
19111;SDS011;9688;51.906;8.376;2023-09-19T04:13:13;11.63;;;3.23;;
19111;SDS011;9688;51.906;8.376;2023-09-19T04:15:59;9.03;;;2.60;;
19111;SDS011;9688;51.906;8.376;2023-09-19T04:18:46;9.27;;;2.87;;
19111;SDS011;9688;51.906;8.376;2023-09-19T04:21:32;7.37;;;2.47;;
19111;SDS011;9688;51.906;8.376;2023-09-19T04:24:18;7.67;;;2.83;;
19111;SDS011;9688;51.906;8.376;2023-09-19T04:27:04;9.97;;;2.50;;
19111;SDS011;9688;51.906;8.376;2023-09-19T04:29:51;12.73;;;2.80;;
19111;SDS011;9688;51.906;8.376;2023-09-19T04:32:37;7.67;;;2.60;;
19111;SDS011;9688;51.906;8.376;2023-09-19T04:35:26;8.23;;;3.27;;
19111;SDS011;9688;51.906;8.376;2023-09-19T04:38:15;9.13;;;2.47;;
19111;SDS011;9688;51.906;8.376;2023-09-19T04:41:01;11.57;;;2.60;;
19111;SDS011;9688;51.906;8.376;2023-09-19T04:43:48;10.37;;;2.83;;
19111;SDS011;9688;51.906;8.376;2023-09-19T04:46:34;16.20;;;3.63;;
19111;SDS011;9688;51.906;8.376;2023-09-19T04:49:20;10.90;;;2.67;;
19111;SDS011;9688;51.906;8.376;2023-09-19T04:52:08;11.93;;;2.80;;
19111;SDS011;9688;51.906;8.376;2023-09-19T04:54:53;14.67;;;3.40;;
19111;SDS011;9688;51.906;8.376;2023-09-19T04:57:39;16.20;;;3.13;;
19111;SDS011;9688;51.906;8.376;2023-09-19T05:00:25;11.33;;;2.77;;
19111;SDS011;9688;51.906;8.376;2023-09-19T05:03:14;18.50;;;3.40;;
19111;SDS011;9688;51.906;8.376;2023-09-19T05:06:01;7.83;;;2.80;;
19111;SDS011;9688;51.906;8.376;2023-09-19T05:08:50;9.63;;;3.03;;
19111;SDS011;9688;51.906;8.376;2023-09-19T05:11:36;9.37;;;2.63;;
19111;SDS011;9688;51.906;8.376;2023-09-19T05:14:23;9.67;;;3.30;;
19111;SDS011;9688;51.906;8.376;2023-09-19T05:17:09;9.87;;;2.80;;
19111;SDS011;9688;51.906;8.376;2023-09-19T05:19:55;8.80;;;3.53;;
19111;SDS011;9688;51.906;8.376;2023-09-19T05:22:41;10.03;;;2.70;;
19111;SDS011;9688;51.906;8.376;2023-09-19T05:25:29;11.80;;;2.73;;
19111;SDS011;9688;51.906;8.376;2023-09-19T05:28:16;10.47;;;3.07;;
19111;SDS011;9688;51.906;8.376;2023-09-19T05:31:03;8.70;;;2.70;;
19111;SDS011;9688;51.906;8.376;2023-09-19T05:33:49;11.80;;;2.80;;
19111;SDS011;9688;51.906;8.376;2023-09-19T05:36:35;10.30;;;2.70;;
19111;SDS011;9688;51.906;8.376;2023-09-19T05:39:21;7.93;;;2.20;;
19111;SDS011;9688;51.906;8.376;2023-09-19T05:42:11;6.67;;;2.67;;
19111;SDS011;9688;51.906;8.376;2023-09-19T05:44:58;12.37;;;2.27;;
19111;SDS011;9688;51.906;8.376;2023-09-19T05:47:44;7.07;;;2.27;;
19111;SDS011;9688;51.906;8.376;2023-09-19T05:50:31;10.87;;;2.30;;
19111;SDS011;9688;51.906;8.376;2023-09-19T05:53:17;13.63;;;2.60;;
19111;SDS011;9688;51.906;8.376;2023-09-19T05:56:04;14.47;;;2.50;;
19111;SDS011;9688;51.906;8.376;2023-09-19T05:58:51;9.87;;;2.90;;
19111;SDS011;9688;51.906;8.376;2023-09-19T06:01:38;15.83;;;3.07;;
19111;SDS011;9688;51.906;8.376;2023-09-19T06:04:24;9.77;;;2.50;;
19111;SDS011;9688;51.906;8.376;2023-09-19T06:07:14;15.07;;;2.57;;
19111;SDS011;9688;51.906;8.376;2023-09-19T06:10:01;14.70;;;3.00;;
19111;SDS011;9688;51.906;8.376;2023-09-19T06:12:47;12.20;;;2.90;;
19111;SDS011;9688;51.906;8.376;2023-09-19T06:15:34;9.77;;;2.27;;
19111;SDS011;9688;51.906;8.376;2023-09-19T06:18:20;9.27;;;2.70;;
19111;SDS011;9688;51.906;8.376;2023-09-19T06:21:10;5.83;;;2.73;;
19111;SDS011;9688;51.906;8.376;2023-09-19T06:23:56;8.27;;;2.77;;
19111;SDS011;9688;51.906;8.376;2023-09-19T06:26:42;14.27;;;2.90;;
19111;SDS011;9688;51.906;8.376;2023-09-19T06:29:28;15.17;;;2.57;;
19111;SDS011;9688;51.906;8.376;2023-09-19T06:32:16;12.00;;;2.97;;
19111;SDS011;9688;51.906;8.376;2023-09-19T06:35:02;9.03;;;2.30;;
19111;SDS011;9688;51.906;8.376;2023-09-19T06:37:51;13.33;;;2.87;;
19111;SDS011;9688;51.906;8.376;2023-09-19T06:40:37;7.97;;;2.50;;
19111;SDS011;9688;51.906;8.376;2023-09-19T06:43:25;12.47;;;2.80;;
19111;SDS011;9688;51.906;8.376;2023-09-19T06:46:12;11.60;;;2.90;;
19111;SDS011;9688;51.906;8.376;2023-09-19T06:49:02;8.77;;;2.50;;
19111;SDS011;9688;51.906;8.376;2023-09-19T06:51:53;8.63;;;2.43;;
19111;SDS011;9688;51.906;8.376;2023-09-19T06:54:41;7.20;;;2.40;;
19111;SDS011;9688;51.906;8.376;2023-09-19T06:57:27;7.53;;;2.63;;
19111;SDS011;9688;51.906;8.376;2023-09-19T07:00:16;13.27;;;2.70;;
19111;SDS011;9688;51.906;8.376;2023-09-19T07:03:02;9.33;;;3.27;;
19111;SDS011;9688;51.906;8.376;2023-09-19T07:05:55;8.17;;;2.30;;
19111;SDS011;9688;51.906;8.376;2023-09-19T07:08:42;12.37;;;3.63;;
19111;SDS011;9688;51.906;8.376;2023-09-19T07:11:29;7.17;;;2.50;;
19111;SDS011;9688;51.906;8.376;2023-09-19T07:14:15;11.07;;;2.50;;
19111;SDS011;9688;51.906;8.376;2023-09-19T07:17:02;13.90;;;3.30;;
19111;SDS011;9688;51.906;8.376;2023-09-19T07:19:49;15.73;;;2.83;;
19111;SDS011;9688;51.906;8.376;2023-09-19T07:22:36;8.10;;;2.70;;
19111;SDS011;9688;51.906;8.376;2023-09-19T07:25:25;12.73;;;2.67;;
19111;SDS011;9688;51.906;8.376;2023-09-19T07:28:15;7.13;;;2.27;;
19111;SDS011;9688;51.906;8.376;2023-09-19T07:31:01;11.03;;;2.90;;
19111;SDS011;9688;51.906;8.376;2023-09-19T07:33:49;6.70;;;2.27;;
19111;SDS011;9688;51.906;8.376;2023-09-19T07:36:35;8.43;;;2.63;;
19111;SDS011;9688;51.906;8.376;2023-09-19T07:39:26;8.20;;;2.30;;
19111;SDS011;9688;51.906;8.376;2023-09-19T07:42:12;10.83;;;2.80;;
19111;SDS011;9688;51.906;8.376;2023-09-19T07:45:01;9.87;;;2.50;;
19111;SDS011;9688;51.906;8.376;2023-09-19T07:47:48;8.37;;;2.50;;
19111;SDS011;9688;51.906;8.376;2023-09-19T07:50:36;9.77;;;2.70;;
19111;SDS011;9688;51.906;8.376;2023-09-19T07:53:21;11.67;;;2.73;;
19111;SDS011;9688;51.906;8.376;2023-09-19T07:56:09;10.97;;;2.70;;
19111;SDS011;9688;51.906;8.376;2023-09-19T07:58:58;9.03;;;2.70;;
19111;SDS011;9688;51.906;8.376;2023-09-19T08:01:44;7.90;;;2.87;;
19111;SDS011;9688;51.906;8.376;2023-09-19T08:04:30;12.10;;;3.20;;
19111;SDS011;9688;51.906;8.376;2023-09-19T08:07:18;8.53;;;2.60;;
19111;SDS011;9688;51.906;8.376;2023-09-19T08:10:05;8.40;;;2.67;;
19111;SDS011;9688;51.906;8.376;2023-09-19T08:12:59;7.77;;;2.43;;
19111;SDS011;9688;51.906;8.376;2023-09-19T08:15:46;9.67;;;2.50;;
19111;SDS011;9688;51.906;8.376;2023-09-19T08:18:32;10.80;;;2.83;;
19111;SDS011;9688;51.906;8.376;2023-09-19T08:21:20;12.27;;;3.00;;
19111;SDS011;9688;51.906;8.376;2023-09-19T08:24:10;8.70;;;2.33;;
19111;SDS011;9688;51.906;8.376;2023-09-19T08:26:57;9.97;;;3.27;;
19111;SDS011;9688;51.906;8.376;2023-09-19T08:29:44;8.57;;;2.63;;
19111;SDS011;9688;51.906;8.376;2023-09-19T08:32:31;9.93;;;2.77;;
19111;SDS011;9688;51.906;8.376;2023-09-19T08:35:19;7.00;;;2.73;;
19111;SDS011;9688;51.906;8.376;2023-09-19T08:38:05;10.17;;;2.50;;
19111;SDS011;9688;51.906;8.376;2023-09-19T08:40:51;7.17;;;2.40;;
19111;SDS011;9688;51.906;8.376;2023-09-19T08:43:37;12.80;;;2.77;;
19111;SDS011;9688;51.906;8.376;2023-09-19T08:46:25;3.80;;;2.30;;
19111;SDS011;9688;51.906;8.376;2023-09-19T08:49:16;8.93;;;2.87;;
19111;SDS011;9688;51.906;8.376;2023-09-19T08:52:16;8.27;;;2.47;;
19111;SDS011;9688;51.906;8.376;2023-09-19T08:55:07;7.77;;;2.40;;
19111;SDS011;9688;51.906;8.376;2023-09-19T08:57:59;10.47;;;2.90;;
19111;SDS011;9688;51.906;8.376;2023-09-19T09:00:47;8.00;;;2.47;;
19111;SDS011;9688;51.906;8.376;2023-09-19T09:03:35;9.00;;;2.40;;
19111;SDS011;9688;51.906;8.376;2023-09-19T09:06:24;8.00;;;2.77;;
19111;SDS011;9688;51.906;8.376;2023-09-19T09:09:12;7.23;;;2.90;;
19111;SDS011;9688;51.906;8.376;2023-09-19T09:11:59;10.10;;;2.63;;
19111;SDS011;9688;51.906;8.376;2023-09-19T09:14:46;9.23;;;3.27;;
19111;SDS011;9688;51.906;8.376;2023-09-19T09:17:32;10.07;;;2.43;;
19111;SDS011;9688;51.906;8.376;2023-09-19T09:20:26;13.93;;;2.90;;
19111;SDS011;9688;51.906;8.376;2023-09-19T09:23:12;10.60;;;2.50;;
19111;SDS011;9688;51.906;8.376;2023-09-19T09:25:58;13.83;;;2.90;;
19111;SDS011;9688;51.906;8.376;2023-09-19T09:28:46;9.97;;;2.70;;
19111;SDS011;9688;51.906;8.376;2023-09-19T09:31:34;12.43;;;2.53;;
19111;SDS011;9688;51.906;8.376;2023-09-19T09:34:20;6.83;;;2.47;;
19111;SDS011;9688;51.906;8.376;2023-09-19T09:37:09;11.63;;;3.10;;
19111;SDS011;9688;51.906;8.376;2023-09-19T09:40:02;11.73;;;2.83;;
19111;SDS011;9688;51.906;8.376;2023-09-19T09:43:03;5.57;;;2.60;;
19111;SDS011;9688;51.906;8.376;2023-09-19T09:46:19;9.33;;;2.63;;
19111;SDS011;9688;51.906;8.376;2023-09-19T09:49:31;8.70;;;2.80;;
19111;SDS011;9688;51.906;8.376;2023-09-19T09:52:19;11.60;;;3.47;;
19111;SDS011;9688;51.906;8.376;2023-09-19T09:55:08;8.43;;;2.60;;
19111;SDS011;9688;51.906;8.376;2023-09-19T09:58:02;11.37;;;2.90;;
19111;SDS011;9688;51.906;8.376;2023-09-19T10:01:03;7.57;;;2.63;;
19111;SDS011;9688;51.906;8.376;2023-09-19T10:03:57;10.67;;;2.60;;
19111;SDS011;9688;51.906;8.376;2023-09-19T10:06:44;9.17;;;2.57;;
19111;SDS011;9688;51.906;8.376;2023-09-19T10:09:46;7.97;;;2.70;;
19111;SDS011;9688;51.906;8.376;2023-09-19T10:12:32;10.87;;;2.70;;
19111;SDS011;9688;51.906;8.376;2023-09-19T10:15:22;7.90;;;2.37;;
19111;SDS011;9688;51.906;8.376;2023-09-19T10:18:16;5.87;;;2.97;;
19111;SDS011;9688;51.906;8.376;2023-09-19T10:21:06;4.80;;;2.03;;
19111;SDS011;9688;51.906;8.376;2023-09-19T10:23:55;7.43;;;2.73;;
19111;SDS011;9688;51.906;8.376;2023-09-19T10:26:50;8.13;;;2.53;;
19111;SDS011;9688;51.906;8.376;2023-09-19T10:29:38;8.80;;;2.60;;
19111;SDS011;9688;51.906;8.376;2023-09-19T10:32:25;10.27;;;3.33;;
19111;SDS011;9688;51.906;8.376;2023-09-19T10:35:17;8.53;;;2.90;;
19111;SDS011;9688;51.906;8.376;2023-09-19T10:38:04;10.07;;;3.13;;
19111;SDS011;9688;51.906;8.376;2023-09-19T10:45:13;7.90;;;2.80;;
19111;SDS011;9688;51.906;8.376;2023-09-19T10:48:04;10.67;;;2.73;;
19111;SDS011;9688;51.906;8.376;2023-09-19T10:50:56;9.00;;;2.33;;
19111;SDS011;9688;51.906;8.376;2023-09-19T10:53:48;10.77;;;2.70;;
19111;SDS011;9688;51.906;8.376;2023-09-19T10:56:37;6.37;;;2.30;;
19111;SDS011;9688;51.906;8.376;2023-09-19T10:59:29;9.57;;;2.50;;
19111;SDS011;9688;51.906;8.376;2023-09-19T11:02:20;9.90;;;2.63;;
19111;SDS011;9688;51.906;8.376;2023-09-19T11:05:11;7.57;;;2.43;;
19111;SDS011;9688;51.906;8.376;2023-09-19T11:07:59;9.20;;;2.50;;
19111;SDS011;9688;51.906;8.376;2023-09-19T11:10:48;6.40;;;2.60;;
19111;SDS011;9688;51.906;8.376;2023-09-19T11:13:35;12.10;;;4.67;;
19111;SDS011;9688;51.906;8.376;2023-09-19T11:16:22;6.07;;;2.43;;
19111;SDS011;9688;51.906;8.376;2023-09-19T11:19:11;8.33;;;2.23;;
19111;SDS011;9688;51.906;8.376;2023-09-19T11:22:01;7.57;;;2.87;;
19111;SDS011;9688;51.906;8.376;2023-09-19T11:24:47;9.87;;;2.40;;
19111;SDS011;9688;51.906;8.376;2023-09-19T11:27:36;8.63;;;2.63;;
19111;SDS011;9688;51.906;8.376;2023-09-19T11:31:41;7.03;;;2.23;;
19111;SDS011;9688;51.906;8.376;2023-09-19T11:34:39;7.23;;;2.30;;
19111;SDS011;9688;51.906;8.376;2023-09-19T11:44:35;7.70;;;2.37;;
19111;SDS011;9688;51.906;8.376;2023-09-19T11:47:22;9.13;;;2.20;;
19111;SDS011;9688;51.906;8.376;2023-09-19T11:50:11;9.17;;;2.40;;
19111;SDS011;9688;51.906;8.376;2023-09-19T11:52:57;7.33;;;2.23;;
19111;SDS011;9688;51.906;8.376;2023-09-19T11:55:43;6.87;;;2.30;;
19111;SDS011;9688;51.906;8.376;2023-09-19T11:58:31;7.97;;;2.23;;
19111;SDS011;9688;51.906;8.376;2023-09-19T12:01:21;10.23;;;2.57;;
19111;SDS011;9688;51.906;8.376;2023-09-19T12:04:10;10.07;;;2.23;;
19111;SDS011;9688;51.906;8.376;2023-09-19T12:06:59;7.30;;;2.20;;
19111;SDS011;9688;51.906;8.376;2023-09-19T12:09:46;5.73;;;2.20;;
19111;SDS011;9688;51.906;8.376;2023-09-19T12:12:34;5.17;;;2.27;;
19111;SDS011;9688;51.906;8.376;2023-09-19T12:15:22;9.03;;;2.47;;
19111;SDS011;9688;51.906;8.376;2023-09-19T12:18:25;14.03;;;3.13;;
19111;SDS011;9688;51.906;8.376;2023-09-19T12:21:22;4.93;;;2.30;;
19111;SDS011;9688;51.906;8.376;2023-09-19T12:24:12;3.67;;;2.10;;
19111;SDS011;9688;51.906;8.376;2023-09-19T12:27:03;6.20;;;2.20;;
19111;SDS011;9688;51.906;8.376;2023-09-19T12:29:51;6.67;;;2.20;;
19111;SDS011;9688;51.906;8.376;2023-09-19T12:32:44;6.30;;;2.17;;
19111;SDS011;9688;51.906;8.376;2023-09-19T12:35:32;6.50;;;2.33;;
19111;SDS011;9688;51.906;8.376;2023-09-19T12:38:23;3.53;;;2.43;;
19111;SDS011;9688;51.906;8.376;2023-09-19T12:41:13;7.60;;;2.53;;
19111;SDS011;9688;51.906;8.376;2023-09-19T12:43:59;6.70;;;2.50;;
19111;SDS011;9688;51.906;8.376;2023-09-19T12:46:47;6.50;;;2.50;;
19111;SDS011;9688;51.906;8.376;2023-09-19T12:49:33;7.83;;;2.20;;
19111;SDS011;9688;51.906;8.376;2023-09-19T12:52:19;5.13;;;2.35;;
19111;SDS011;9688;51.906;8.376;2023-09-19T12:55:19;6.18;;;2.47;;
19111;SDS011;9688;51.906;8.376;2023-09-19T12:58:12;6.77;;;2.37;;
19111;SDS011;9688;51.906;8.376;2023-09-19T13:01:13;6.80;;;1.97;;
19111;SDS011;9688;51.906;8.376;2023-09-19T13:04:10;5.10;;;2.20;;
19111;SDS011;9688;51.906;8.376;2023-09-19T13:06:59;6.13;;;2.00;;
19111;SDS011;9688;51.906;8.376;2023-09-19T13:12:51;3.90;;;2.10;;
19111;SDS011;9688;51.906;8.376;2023-09-19T13:18:43;8.53;;;2.10;;
19111;SDS011;9688;51.906;8.376;2023-09-19T13:21:35;3.42;;;1.90;;
19111;SDS011;9688;51.906;8.376;2023-09-19T13:24:26;6.20;;;2.07;;
19111;SDS011;9688;51.906;8.376;2023-09-19T13:27:14;8.30;;;2.55;;
19111;SDS011;9688;51.906;8.376;2023-09-19T13:30:01;7.07;;;2.17;;
19111;SDS011;9688;51.906;8.376;2023-09-19T13:32:50;6.13;;;1.92;;
19111;SDS011;9688;51.906;8.376;2023-09-19T13:35:38;6.40;;;2.30;;
19111;SDS011;9688;51.906;8.376;2023-09-19T13:38:25;6.60;;;2.00;;
19111;SDS011;9688;51.906;8.376;2023-09-19T13:41:11;11.60;;;2.70;;
19111;SDS011;9688;51.906;8.376;2023-09-19T13:43:58;6.30;;;2.00;;
19111;SDS011;9688;51.906;8.376;2023-09-19T13:46:44;6.80;;;2.20;;
19111;SDS011;9688;51.906;8.376;2023-09-19T13:49:32;7.75;;;2.00;;
19111;SDS011;9688;51.906;8.376;2023-09-19T13:52:18;5.03;;;2.15;;
19111;SDS011;9688;51.906;8.376;2023-09-19T13:55:06;3.93;;;2.37;;
19111;SDS011;9688;51.906;8.376;2023-09-19T13:57:52;3.05;;;1.80;;
19111;SDS011;9688;51.906;8.376;2023-09-19T14:00:40;4.78;;;1.80;;
19111;SDS011;9688;51.906;8.376;2023-09-19T14:03:27;3.42;;;1.95;;
19111;SDS011;9688;51.906;8.376;2023-09-19T14:06:15;5.15;;;2.33;;
19111;SDS011;9688;51.906;8.376;2023-09-19T14:09:02;5.68;;;2.20;;
19111;SDS011;9688;51.906;8.376;2023-09-19T14:11:48;4.30;;;1.70;;
19111;SDS011;9688;51.906;8.376;2023-09-19T14:14:36;7.97;;;2.50;;
19111;SDS011;9688;51.906;8.376;2023-09-19T14:17:22;2.50;;;1.65;;
19111;SDS011;9688;51.906;8.376;2023-09-19T14:20:12;5.05;;;2.13;;
19111;SDS011;9688;51.906;8.376;2023-09-19T14:23:01;5.03;;;2.03;;
19111;SDS011;9688;51.906;8.376;2023-09-19T14:25:47;5.68;;;1.92;;
19111;SDS011;9688;51.906;8.376;2023-09-19T14:28:33;7.33;;;2.00;;
19111;SDS011;9688;51.906;8.376;2023-09-19T14:31:21;6.68;;;1.95;;
19111;SDS011;9688;51.906;8.376;2023-09-19T14:34:10;8.40;;;2.10;;
19111;SDS011;9688;51.906;8.376;2023-09-19T14:36:58;4.50;;;2.08;;
19111;SDS011;9688;51.906;8.376;2023-09-19T14:39:45;5.53;;;2.30;;
19111;SDS011;9688;51.906;8.376;2023-09-19T14:42:32;3.60;;;1.80;;
19111;SDS011;9688;51.906;8.376;2023-09-19T14:45:20;4.15;;;2.05;;
19111;SDS011;9688;51.906;8.376;2023-09-19T14:48:06;6.93;;;2.30;;
19111;SDS011;9688;51.906;8.376;2023-09-19T14:50:53;7.53;;;2.47;;
19111;SDS011;9688;51.906;8.376;2023-09-19T14:53:39;7.32;;;2.05;;
19111;SDS011;9688;51.906;8.376;2023-09-19T14:56:30;3.70;;;2.00;;
19111;SDS011;9688;51.906;8.376;2023-09-19T14:59:16;4.30;;;1.90;;
19111;SDS011;9688;51.906;8.376;2023-09-19T15:02:03;5.47;;;2.13;;
19111;SDS011;9688;51.906;8.376;2023-09-19T15:04:49;2.87;;;2.10;;
19111;SDS011;9688;51.906;8.376;2023-09-19T15:07:35;6.33;;;2.30;;
19111;SDS011;9688;51.906;8.376;2023-09-19T15:10:22;6.38;;;2.17;;
19111;SDS011;9688;51.906;8.376;2023-09-19T15:13:10;4.70;;;2.00;;
19111;SDS011;9688;51.906;8.376;2023-09-19T15:15:58;3.33;;;1.80;;
19111;SDS011;9688;51.906;8.376;2023-09-19T15:18:45;5.63;;;2.10;;
19111;SDS011;9688;51.906;8.376;2023-09-19T15:21:32;4.80;;;2.00;;
19111;SDS011;9688;51.906;8.376;2023-09-19T15:24:19;7.37;;;1.57;;
19111;SDS011;9688;51.906;8.376;2023-09-19T15:27:05;6.13;;;2.20;;
19111;SDS011;9688;51.906;8.376;2023-09-19T15:29:52;4.63;;;1.90;;
19111;SDS011;9688;51.906;8.376;2023-09-19T15:32:38;7.13;;;1.50;;
19111;SDS011;9688;51.906;8.376;2023-09-19T15:35:25;4.10;;;1.50;;
19111;SDS011;9688;51.906;8.376;2023-09-19T15:38:11;6.83;;;1.60;;
19111;SDS011;9688;51.906;8.376;2023-09-19T15:44:12;3.53;;;1.20;;
19111;SDS011;9688;51.906;8.376;2023-09-19T15:47:03;5.50;;;1.63;;
19111;SDS011;9688;51.906;8.376;2023-09-19T15:49:52;2.43;;;1.60;;
19111;SDS011;9688;51.906;8.376;2023-09-19T15:52:38;4.00;;;1.40;;
19111;SDS011;9688;51.906;8.376;2023-09-19T15:55:24;3.43;;;1.27;;
19111;SDS011;9688;51.906;8.376;2023-09-19T16:01:47;4.23;;;1.43;;
19111;SDS011;9688;51.906;8.376;2023-09-19T16:04:37;2.80;;;1.30;;
19111;SDS011;9688;51.906;8.376;2023-09-19T16:07:28;2.47;;;1.30;;
19111;SDS011;9688;51.906;8.376;2023-09-19T16:10:14;2.90;;;1.30;;
19111;SDS011;9688;51.906;8.376;2023-09-19T16:13:00;6.13;;;1.30;;
19111;SDS011;9688;51.906;8.376;2023-09-19T16:15:47;3.83;;;1.53;;
19111;SDS011;9688;51.906;8.376;2023-09-19T16:18:32;4.07;;;2.07;;
19111;SDS011;9688;51.906;8.376;2023-09-19T16:21:21;2.83;;;1.43;;
19111;SDS011;9688;51.906;8.376;2023-09-19T16:24:08;2.33;;;1.43;;
19111;SDS011;9688;51.906;8.376;2023-09-19T16:26:55;3.43;;;1.70;;
19111;SDS011;9688;51.906;8.376;2023-09-19T16:29:41;4.10;;;1.47;;
19111;SDS011;9688;51.906;8.376;2023-09-19T16:32:27;5.43;;;1.40;;
19111;SDS011;9688;51.906;8.376;2023-09-19T16:35:13;3.23;;;1.00;;
19111;SDS011;9688;51.906;8.376;2023-09-19T16:38:01;1.50;;;1.00;;
19111;SDS011;9688;51.906;8.376;2023-09-19T16:40:53;2.67;;;1.00;;
19111;SDS011;9688;51.906;8.376;2023-09-19T16:43:40;6.13;;;1.50;;
19111;SDS011;9688;51.906;8.376;2023-09-19T16:46:27;4.00;;;2.33;;
19111;SDS011;9688;51.906;8.376;2023-09-19T16:49:14;3.07;;;1.27;;
19111;SDS011;9688;51.906;8.376;2023-09-19T16:52:00;1.90;;;1.33;;
19111;SDS011;9688;51.906;8.376;2023-09-19T16:54:48;3.80;;;1.20;;
19111;SDS011;9688;51.906;8.376;2023-09-19T16:57:35;5.30;;;1.50;;
19111;SDS011;9688;51.906;8.376;2023-09-19T17:00:21;4.93;;;1.40;;
19111;SDS011;9688;51.906;8.376;2023-09-19T17:03:09;7.10;;;1.83;;
19111;SDS011;9688;51.906;8.376;2023-09-19T17:05:57;2.50;;;1.73;;
19111;SDS011;9688;51.906;8.376;2023-09-19T17:08:43;6.53;;;2.03;;
19111;SDS011;9688;51.906;8.376;2023-09-19T17:11:31;3.80;;;1.50;;
19111;SDS011;9688;51.906;8.376;2023-09-19T17:14:18;4.40;;;1.90;;
19111;SDS011;9688;51.906;8.376;2023-09-19T17:17:04;2.50;;;1.60;;
19111;SDS011;9688;51.906;8.376;2023-09-19T17:19:50;2.43;;;1.23;;
19111;SDS011;9688;51.906;8.376;2023-09-19T17:22:36;4.67;;;1.33;;
19111;SDS011;9688;51.906;8.376;2023-09-19T17:25:22;4.60;;;1.63;;
19111;SDS011;9688;51.906;8.376;2023-09-19T17:28:10;3.07;;;1.40;;
19111;SDS011;9688;51.906;8.376;2023-09-19T17:30:56;4.20;;;1.53;;